Time;durP1;ratioP1;P1;durP2;ratioP2;P2;SDS_P1;SDS_P2;PMS_P1;PMS_P2;Temp;Humidity;BMP_temperature;BMP_pressure;BME280_temperature;BME280_humidity;BME280_pressure;Samples;Min_cycle;Max_cycle;Signal;HPM_P1;HPM_P2
2022/02/24 00:00:18;;;;;;;23.65;11.70;;;;;;;-144.65;100.00;64500.88;5088142;28;20145;-75
2022/02/24 00:02:44;;;;;;;29.42;13.35;;;;;;;-144.65;100.00;64500.88;5089154;28;20032;-76
2022/02/24 00:05:10;;;;;;;31.20;13.93;;;;;;;-144.65;100.00;64500.88;5089563;28;20111;-75
2022/02/24 00:07:36;;;;;;;30.30;14.65;;;;;;;-144.65;100.00;64500.88;5085210;28;20028;-74
2022/02/24 00:10:05;;;;;;;28.17;13.75;;;;;;;-144.65;100.00;64500.88;5075650;28;20577;-75
2022/02/24 00:12:30;;;;;;;28.05;14.10;;;;;;;-144.65;100.00;64500.88;5087907;28;20484;-75
2022/02/24 00:14:56;;;;;;;29.40;13.68;;;;;;;-144.65;100.00;64500.88;5090580;28;20028;-74
2022/02/24 00:17:22;;;;;;;26.23;13.73;;;;;;;-144.65;100.00;64500.88;5090776;28;20035;-75
2022/02/24 00:19:48;;;;;;;32.95;14.13;;;;;;;-144.65;100.00;64500.88;5090937;28;20491;-75
2022/02/24 00:22:13;;;;;;;31.98;15.07;;;;;;;-144.65;100.00;64500.88;5090157;28;20031;-75
2022/02/24 00:24:39;;;;;;;32.08;14.13;;;;;;;-144.65;100.00;64500.88;5088890;28;20393;-75
2022/02/24 00:27:04;;;;;;;31.83;13.13;;;;;;;-144.65;100.00;64500.88;5090094;28;20020;-75
2022/02/24 00:29:29;;;;;;;29.27;14.25;;;;;;;-144.65;100.00;64500.88;5088731;28;20024;-76
2022/02/24 00:31:55;;;;;;;29.10;13.18;;;;;;;-144.65;100.00;64500.88;5088875;28;20040;-74
2022/02/24 00:34:23;;;;;;;26.58;13.70;;;;;;;-144.65;100.00;64500.88;5083063;28;20019;-74
2022/02/24 00:36:53;;;;;;;26.45;13.38;;;;;;;-144.65;100.00;64500.88;5087303;28;20028;-75
2022/02/24 00:39:20;;;;;;;27.98;13.90;;;;;;;-144.65;100.00;64500.88;5087766;28;20024;-75
2022/02/24 00:41:46;;;;;;;39.55;15.05;;;;;;;-144.65;100.00;64500.88;5090984;28;20469;-76
2022/02/24 00:44:12;;;;;;;30.77;14.82;;;;;;;-144.65;100.00;64500.88;5090755;28;20032;-75
2022/02/24 00:46:37;;;;;;;34.15;15.45;;;;;;;-144.65;100.00;64500.88;5089706;28;20016;-75
2022/02/24 00:49:03;;;;;;;29.27;14.27;;;;;;;-144.65;100.00;64500.88;5089904;28;20097;-76
2022/02/24 00:51:28;;;;;;;30.15;15.55;;;;;;;-144.65;100.00;64500.88;5088627;28;20024;-76
2022/02/24 00:53:54;;;;;;;37.95;14.68;;;;;;;-144.65;100.00;64500.88;5089314;28;20039;-74
2022/02/24 00:56:19;;;;;;;38.42;15.32;;;;;;;-144.65;100.00;64500.88;5088178;28;20028;-75
2022/02/24 00:58:45;;;;;;;32.38;15.55;;;;;;;-144.65;100.00;64500.88;5089502;28;20096;-75
2022/02/24 01:01:10;;;;;;;27.88;13.07;;;;;;;-144.65;100.00;64500.88;5089737;28;20036;-75
2022/02/24 01:03:36;;;;;;;28.13;12.95;;;;;;;-144.65;100.00;64500.88;5088904;28;20031;-79
2022/02/24 01:06:01;;;;;;;27.65;13.93;;;;;;;-144.65;100.00;64500.88;5093951;28;20465;-76
2022/02/24 01:08:26;;;;;;;29.35;14.45;;;;;;;-144.65;100.00;64500.88;5093858;28;20027;-74
2022/02/24 01:10:52;;;;;;;27.80;14.10;;;;;;;-144.65;100.00;64500.88;5093439;28;20492;-74
2022/02/24 01:13:20;;;;;;;31.92;13.63;;;;;;;-144.65;100.00;64500.88;5088543;28;20020;-74
2022/02/24 01:15:45;;;;;;;31.17;13.52;;;;;;;-144.65;100.00;64500.88;5088719;28;20158;-74
2022/02/24 01:18:11;;;;;;;29.73;13.13;;;;;;;-144.65;100.00;64500.88;5092978;28;20091;-75
2022/02/24 01:20:37;;;;;;;33.47;15.25;;;;;;;-144.65;100.00;64500.88;5093131;28;20034;-75
2022/02/24 01:23:04;;;;;;;30.50;15.38;;;;;;;-144.65;100.00;64500.88;5088032;28;20032;-75
2022/02/24 01:25:30;;;;;;;31.63;13.95;;;;;;;-144.65;100.00;64500.88;5093098;28;20020;-75
2022/02/24 01:27:55;;;;;;;33.20;14.60;;;;;;;-144.65;100.00;64500.88;5095346;28;20362;-75
2022/02/24 01:30:21;;;;;;;27.88;13.48;;;;;;;-144.65;100.00;64500.88;5095147;28;20031;-75
2022/02/24 01:32:47;;;;;;;35.58;14.88;;;;;;;-144.65;100.00;64500.88;5095367;28;20123;-75
2022/02/24 01:35:13;;;;;;;37.15;15.18;;;;;;;-144.65;100.00;64500.88;5097317;28;20024;-76
2022/02/24 01:37:38;;;;;;;31.17;14.52;;;;;;;-144.65;100.00;64500.88;5098341;28;20024;-75
2022/02/24 01:40:05;;;;;;;38.10;15.07;;;;;;;-144.65;100.00;64500.88;5093082;28;20043;-74
2022/02/24 01:42:31;;;;;;;30.77;15.35;;;;;;;-144.65;100.00;64500.88;5094713;28;20020;-75
2022/02/24 01:44:57;;;;;;;31.10;14.48;;;;;;;-144.65;100.00;64500.88;5092958;28;20389;-75
2022/02/24 01:47:22;;;;;;;32.40;15.20;;;;;;;-144.65;100.00;64500.88;5094387;28;20443;-75
2022/02/24 01:49:48;;;;;;;39.17;15.68;;;;;;;-144.65;100.00;64500.88;5094749;28;20051;-75
2022/02/24 01:52:13;;;;;;;32.60;14.73;;;;;;;-144.65;100.00;64500.88;5094393;28;20032;-75
2022/02/24 01:54:40;;;;;;;33.30;14.68;;;;;;;-144.65;100.00;64500.88;5092683;28;20491;-75
2022/02/24 01:57:06;;;;;;;33.25;16.25;;;;;;;-144.65;100.00;64500.88;5093769;28;20036;-75
2022/02/24 01:59:32;;;;;;;33.25;15.75;;;;;;;-144.65;100.00;64500.88;5092675;28;20036;-75
2022/02/24 02:01:57;;;;;;;30.70;15.50;;;;;;;-144.65;100.00;64500.88;5093983;28;20027;-75
2022/02/24 02:04:24;;;;;;;27.27;14.10;;;;;;;-144.65;100.00;64500.88;5094074;28;20024;-75
2022/02/24 02:06:49;;;;;;;32.72;15.55;;;;;;;-144.65;100.00;64500.88;5094026;28;20032;-74
2022/02/24 02:09:16;;;;;;;27.58;14.85;;;;;;;-144.65;100.00;64500.88;5093827;28;20496;-74
2022/02/24 02:11:42;;;;;;;30.55;15.05;;;;;;;-144.65;100.00;64500.88;5092517;28;20496;-74
2022/02/24 02:14:11;;;;;;;32.17;15.07;;;;;;;-144.65;100.00;64500.88;5092576;28;20016;-75
2022/02/24 02:16:49;;;;;;;32.42;16.00;;;;;;;-144.65;100.00;64500.88;5093622;28;20481;-75
2022/02/24 02:19:15;;;;;;;31.60;15.15;;;;;;;-144.65;100.00;64500.88;5092852;28;20012;-76
2022/02/24 02:21:42;;;;;;;29.67;13.75;;;;;;;-144.65;100.00;64500.88;5093610;28;20106;-74
2022/02/24 02:24:07;;;;;;;32.97;16.35;;;;;;;-144.65;100.00;64500.88;5092460;28;20024;-75
2022/02/24 02:26:33;;;;;;;32.38;14.27;;;;;;;-144.65;100.00;64500.88;5093509;28;20028;-76
2022/02/24 02:29:00;;;;;;;31.38;14.23;;;;;;;-144.65;100.00;64500.88;5092577;28;20035;-74
2022/02/24 02:31:26;;;;;;;28.98;13.98;;;;;;;-144.65;100.00;64500.88;5092924;28;20056;-77
2022/02/24 02:34:04;;;;;;;35.05;14.70;;;;;;;-144.65;100.00;64500.88;5094851;28;20449;-75
2022/02/24 02:36:29;;;;;;;30.00;13.48;;;;;;;-144.65;100.00;64500.88;5088317;28;20032;-75
2022/02/24 02:38:55;;;;;;;39.35;15.70;;;;;;;-144.65;100.00;64500.88;5072697;28;20040;-74
2022/02/24 02:41:21;;;;;;;31.23;14.05;;;;;;;-144.65;100.00;64500.88;5072086;28;20020;-74
2022/02/24 02:43:47;;;;;;;29.65;14.93;;;;;;;-144.65;100.00;64500.88;5072907;28;20032;-75
2022/02/24 02:46:12;;;;;;;30.80;13.88;;;;;;;-144.65;100.00;64500.88;5072818;28;20078;-74
2022/02/24 02:48:38;;;;;;;30.27;15.15;;;;;;;-144.65;100.00;64500.88;5072497;28;20060;-75
2022/02/24 02:51:03;;;;;;;29.33;14.23;;;;;;;-144.65;100.00;64500.88;5072577;28;20025;-74
2022/02/24 02:53:28;;;;;;;34.92;15.52;;;;;;;-144.65;100.00;64500.88;5071288;28;20029;-74
2022/02/24 02:55:54;;;;;;;27.88;14.05;;;;;;;-144.65;100.00;64500.88;5072384;28;20034;-74
2022/02/24 02:58:19;;;;;;;31.02;14.68;;;;;;;-144.65;100.00;64500.88;5071036;28;20044;-75
2022/02/24 03:00:44;;;;;;;30.95;15.20;;;;;;;-144.65;100.00;64500.88;5071337;28;20039;-75
2022/02/24 03:03:10;;;;;;;28.73;14.07;;;;;;;-144.65;100.00;64500.88;5072549;28;20094;-75
2022/02/24 03:05:36;;;;;;;32.85;14.55;;;;;;;-144.65;100.00;64500.88;5072292;28;20024;-74
2022/02/24 03:08:01;;;;;;;28.50;13.98;;;;;;;-144.65;100.00;64500.88;5072493;28;20024;-74
2022/02/24 03:10:27;;;;;;;28.05;14.43;;;;;;;-144.65;100.00;64500.88;5071054;28;20034;-74
2022/02/24 03:12:52;;;;;;;33.58;14.70;;;;;;;-144.65;100.00;64500.88;5072654;28;20033;-74
2022/02/24 03:15:18;;;;;;;33.47;14.75;;;;;;;-144.65;100.00;64500.88;5070997;28;20055;-75
2022/02/24 03:17:46;;;;;;;34.83;16.42;;;;;;;-144.65;100.00;64500.88;5072355;28;20397;-74
2022/02/24 03:20:12;;;;;;;30.40;13.82;;;;;;;-144.65;100.00;64500.88;5072352;28;20078;-75
2022/02/24 03:22:38;;;;;;;28.30;14.15;;;;;;;-144.65;100.00;64500.88;5070887;28;20024;-73
2022/02/24 03:25:04;;;;;;;31.38;15.10;;;;;;;-144.65;100.00;64500.88;5072174;28;20470;-74
2022/02/24 03:27:30;;;;;;;26.75;13.85;;;;;;;-144.65;100.00;64500.88;5073622;28;20036;-75
2022/02/24 03:29:56;;;;;;;29.10;14.35;;;;;;;-144.65;100.00;64500.88;5070802;28;20397;-75
2022/02/24 03:32:21;;;;;;;36.15;15.43;;;;;;;-144.65;100.00;64500.88;5070590;28;20111;-75
2022/02/24 03:34:48;;;;;;;31.05;14.73;;;;;;;-144.65;100.00;64500.88;5071715;28;20028;-76
2022/02/24 03:37:14;;;;;;;33.30;15.65;;;;;;;-144.65;100.00;64500.88;5070566;28;20452;-75
2022/02/24 03:39:40;;;;;;;30.65;15.27;;;;;;;-144.65;100.00;64500.88;5071170;28;20021;-76
2022/02/24 03:42:06;;;;;;;31.77;14.88;;;;;;;-144.65;100.00;64500.88;5071182;28;20477;-75
2022/02/24 03:44:31;;;;;;;32.58;15.40;;;;;;;-144.65;100.00;64500.88;5071199;28;20481;-76
2022/02/24 03:46:56;;;;;;;34.20;15.23;;;;;;;-144.65;100.00;64500.88;5073966;28;20111;-76
2022/02/24 03:49:22;;;;;;;30.85;14.50;;;;;;;-144.65;100.00;64500.88;5072749;28;20397;-75
2022/02/24 03:51:47;;;;;;;35.28;15.48;;;;;;;-144.65;100.00;64500.88;5069991;28;20024;-76
2022/02/24 03:54:13;;;;;;;34.45;15.35;;;;;;;-144.65;100.00;64500.88;5071492;28;20032;-76
2022/02/24 03:56:38;;;;;;;32.85;14.05;;;;;;;-144.65;100.00;64500.88;5071406;28;20363;-76
2022/02/24 03:59:04;;;;;;;35.20;15.68;;;;;;;-144.65;100.00;64500.88;5069850;28;20052;-74
2022/02/24 04:01:29;;;;;;;32.80;14.93;;;;;;;-144.65;100.00;64500.88;5070071;28;20024;-76
2022/02/24 04:04:02;;;;;;;38.22;15.73;;;;;;;-144.65;100.00;64500.88;5070092;28;20021;-76
2022/02/24 04:06:28;;;;;;;30.45;15.60;;;;;;;-144.65;100.00;64500.88;5071318;28;20024;-76
2022/02/24 04:08:53;;;;;;;30.35;15.18;;;;;;;-144.65;100.00;64500.88;5069528;28;20036;-74
2022/02/24 04:11:19;;;;;;;34.33;15.38;;;;;;;-144.65;100.00;64500.88;5086563;28;20025;-74
2022/02/24 04:13:44;;;;;;;35.20;15.32;;;;;;;-144.65;100.00;64500.88;5071146;28;20040;-75
2022/02/24 04:16:10;;;;;;;28.10;13.77;;;;;;;-144.65;100.00;64500.88;5071086;28;20021;-74
2022/02/24 04:18:35;;;;;;;35.55;14.57;;;;;;;-144.65;100.00;64500.88;5070850;28;20027;-74
2022/02/24 04:21:00;;;;;;;34.35;14.10;;;;;;;-144.65;100.00;64500.88;5071602;28;20025;-75
2022/02/24 04:23:26;;;;;;;30.20;14.70;;;;;;;-144.65;100.00;64500.88;5071672;28;20481;-73
2022/02/24 04:25:51;;;;;;;28.15;14.32;;;;;;;-144.65;100.00;64500.88;5071290;28;20028;-74
2022/02/24 04:28:17;;;;;;;32.35;14.75;;;;;;;-144.65;100.00;64500.88;5072441;28;20105;-74
2022/02/24 04:30:42;;;;;;;28.65;14.65;;;;;;;-144.65;100.00;64500.88;5069502;28;20106;-75
2022/02/24 04:33:08;;;;;;;36.15;16.35;;;;;;;-144.65;100.00;64500.88;5069554;28;20059;-74
2022/02/24 04:35:33;;;;;;;31.40;15.00;;;;;;;-144.65;100.00;64500.88;5070751;28;20013;-74
2022/02/24 04:37:58;;;;;;;33.97;15.60;;;;;;;-144.65;100.00;64500.88;5098396;28;20374;-75
2022/02/24 04:40:24;;;;;;;29.58;14.10;;;;;;;-144.65;100.00;64500.88;5111126;28;20016;-74
2022/02/24 04:42:49;;;;;;;28.15;15.15;;;;;;;-144.65;100.00;64500.88;5109897;28;20034;-74
2022/02/24 04:45:15;;;;;;;29.35;13.88;;;;;;;-144.65;100.00;64500.88;5111401;28;20468;-75
2022/02/24 04:47:40;;;;;;;33.20;16.48;;;;;;;-144.65;100.00;64500.88;5111235;28;20028;-74
2022/02/24 04:50:08;;;;;;;36.63;16.13;;;;;;;-144.65;100.00;64500.88;5092890;28;20029;-74
2022/02/24 04:52:36;;;;;;;31.25;13.93;;;;;;;-144.65;100.00;64500.88;5077202;28;20607;-74
2022/02/24 04:55:03;;;;;;;31.65;14.30;;;;;;;-144.65;100.00;64500.88;5068068;28;20044;-74
2022/02/24 04:57:29;;;;;;;30.23;14.90;;;;;;;-144.65;100.00;64500.88;5087134;28;20129;-74
2022/02/24 04:59:55;;;;;;;32.17;15.43;;;;;;;-144.65;100.00;64500.88;5090259;28;20166;-74
2022/02/24 05:02:22;;;;;;;31.38;14.38;;;;;;;-144.65;100.00;64500.88;5090146;28;20071;-75
2022/02/24 05:04:47;;;;;;;27.63;14.32;;;;;;;-144.65;100.00;64500.88;5088927;28;20055;-74
2022/02/24 05:07:12;;;;;;;30.58;15.02;;;;;;;-144.65;100.00;64500.88;5090276;28;20384;-74
2022/02/24 05:09:39;;;;;;;26.20;13.68;;;;;;;-144.65;100.00;64500.88;5071471;28;20024;-75
2022/02/24 05:12:05;;;;;;;37.75;14.07;;;;;;;-144.65;100.00;64500.88;5070329;28;20028;-74
2022/02/24 05:14:31;;;;;;;28.27;13.63;;;;;;;-144.65;100.00;64500.88;5069731;28;20099;-74
2022/02/24 05:16:57;;;;;;;32.60;14.80;;;;;;;-144.65;100.00;64500.88;5070336;28;20033;-74
2022/02/24 05:19:22;;;;;;;29.65;13.98;;;;;;;-144.65;100.00;64500.88;5071319;28;20031;-74
2022/02/24 05:21:48;;;;;;;35.53;14.43;;;;;;;-144.65;100.00;64500.88;5070101;28;20040;-75
2022/02/24 05:24:13;;;;;;;33.20;14.75;;;;;;;-144.65;100.00;64500.88;5069890;28;20470;-74
2022/02/24 05:26:39;;;;;;;35.60;14.50;;;;;;;-144.65;100.00;64500.88;5069531;28;20039;-74
2022/02/24 05:29:04;;;;;;;33.20;15.52;;;;;;;-144.65;100.00;64500.88;5068488;28;20114;-74
2022/02/24 05:31:30;;;;;;;28.80;13.63;;;;;;;-144.65;100.00;64500.88;5069938;28;20493;-75
2022/02/24 05:33:55;;;;;;;29.30;15.30;;;;;;;-144.65;100.00;64500.88;5069926;28;20478;-75
2022/02/24 05:36:20;;;;;;;30.35;14.98;;;;;;;-144.65;100.00;64500.88;5069763;28;20023;-74
2022/02/24 05:38:46;;;;;;;30.30;15.02;;;;;;;-144.65;100.00;64500.88;5069621;28;20028;-74
2022/02/24 05:41:11;;;;;;;28.60;14.38;;;;;;;-144.65;100.00;64500.88;5068779;28;20111;-75
2022/02/24 05:43:37;;;;;;;34.30;15.35;;;;;;;-144.65;100.00;64500.88;5068598;28;20056;-75
2022/02/24 05:46:02;;;;;;;32.53;15.38;;;;;;;-144.65;100.00;64500.88;5087367;28;20026;-74
2022/02/24 05:48:27;;;;;;;28.98;14.15;;;;;;;-144.65;100.00;64500.88;5090091;28;20549;-75
2022/02/24 05:50:53;;;;;;;26.45;14.07;;;;;;;-144.65;100.00;64500.88;5090439;28;20482;-75
2022/02/24 05:53:18;;;;;;;27.98;13.52;;;;;;;-144.65;100.00;64500.88;5088856;28;20032;-75
2022/02/24 05:55:44;;;;;;;32.95;14.75;;;;;;;-144.65;100.00;64500.88;5072103;28;20028;-74
2022/02/24 05:58:09;;;;;;;32.58;15.15;;;;;;;-144.65;100.00;64500.88;5094292;28;20048;-75
2022/02/24 06:00:35;;;;;;;28.55;13.98;;;;;;;-144.65;100.00;64500.88;5095187;28;20115;-74
2022/02/24 06:03:00;;;;;;;28.02;14.43;;;;;;;-144.65;100.00;64500.88;5093007;28;20019;-76
2022/02/24 06:05:26;;;;;;;29.48;14.77;;;;;;;-144.65;100.00;64500.88;5091845;28;20035;-75
2022/02/24 06:07:51;;;;;;;33.65;15.85;;;;;;;-144.65;100.00;64500.88;5093533;28;20019;-75
2022/02/24 06:10:16;;;;;;;36.60;15.95;;;;;;;-144.65;100.00;64500.88;5093494;28;20031;-75
2022/02/24 06:12:42;;;;;;;74.80;45.78;;;;;;;-144.65;100.00;64500.88;5092884;28;20401;-75
2022/02/24 06:15:09;;;;;;;50.28;25.10;;;;;;;-144.65;100.00;64500.88;5092114;28;20049;-75
2022/02/24 06:17:35;;;;;;;48.10;22.40;;;;;;;-144.65;100.00;64500.88;5093518;28;20074;-75
2022/02/24 06:20:01;;;;;;;35.40;16.27;;;;;;;-144.65;100.00;64500.88;5092341;28;20030;-75
2022/02/24 06:22:26;;;;;;;32.92;14.98;;;;;;;-144.65;100.00;64500.88;5093214;28;20115;-75
2022/02/24 06:24:52;;;;;;;55.08;17.85;;;;;;;-144.65;100.00;64500.88;5091747;28;20020;-75
2022/02/24 06:27:18;;;;;;;33.45;14.95;;;;;;;-144.65;100.00;64500.88;5080417;28;20013;-75
2022/02/24 06:29:44;;;;;;;29.95;15.32;;;;;;;-144.65;100.00;64500.88;5093160;28;20028;-75
2022/02/24 06:32:10;;;;;;;38.05;15.75;;;;;;;-144.65;100.00;64500.88;5081064;28;20036;-75
2022/02/24 06:34:35;;;;;;;34.28;14.68;;;;;;;-144.65;100.00;64500.88;5072960;28;20033;-76
2022/02/24 06:37:01;;;;;;;33.33;13.98;;;;;;;-144.65;100.00;64500.88;5072908;28;20032;-76
2022/02/24 06:39:26;;;;;;;27.73;12.77;;;;;;;-144.65;100.00;64500.88;5072867;28;20503;-75
2022/02/24 06:41:51;;;;;;;31.60;14.63;;;;;;;-144.65;100.00;64500.88;5072275;28;20036;-75
2022/02/24 06:44:17;;;;;;;31.88;14.45;;;;;;;-144.65;100.00;64500.88;5082725;28;20470;-74
2022/02/24 06:46:44;;;;;;;30.25;14.13;;;;;;;-144.65;100.00;64500.88;5092884;28;20069;-74
2022/02/24 06:49:12;;;;;;;28.00;13.25;;;;;;;-144.65;100.00;64500.88;5091499;28;20032;-74
2022/02/24 06:51:38;;;;;;;27.10;12.43;;;;;;;-144.65;100.00;64500.88;5093276;28;20484;-74
2022/02/24 06:54:04;;;;;;;30.92;13.00;;;;;;;-144.65;100.00;64500.88;5092963;28;20039;-72
2022/02/24 06:56:30;;;;;;;29.50;13.55;;;;;;;-144.65;100.00;64500.88;5092767;28;20047;-72
2022/02/24 06:58:55;;;;;;;23.67;12.30;;;;;;;-144.65;100.00;64500.88;5092312;28;20133;-72
2022/02/24 07:01:20;;;;;;;24.77;12.98;;;;;;;-144.65;100.00;64500.88;5092591;28;20057;-71
2022/02/24 07:03:46;;;;;;;27.40;13.25;;;;;;;-144.65;100.00;64500.88;5092639;28;20050;-72
2022/02/24 07:06:11;;;;;;;19.08;11.60;;;;;;;-144.65;100.00;64500.88;5092475;28;20058;-72
2022/02/24 07:08:37;;;;;;;24.95;11.82;;;;;;;-144.65;100.00;64500.88;5093952;28;20119;-73
2022/02/24 07:11:03;;;;;;;27.90;12.32;;;;;;;-144.65;100.00;64500.88;5092371;28;20523;-72
2022/02/24 07:13:29;;;;;;;25.40;12.00;;;;;;;-144.65;100.00;64500.88;5091027;28;20024;-72
2022/02/24 07:15:55;;;;;;;24.50;12.80;;;;;;;-144.65;100.00;64500.88;5091897;28;20075;-72
2022/02/24 07:18:20;;;;;;;28.00;13.13;;;;;;;-144.65;100.00;64500.88;5092253;28;20028;-72
2022/02/24 07:20:46;;;;;;;26.38;13.35;;;;;;;-144.65;100.00;64500.88;5081264;28;20107;-72
2022/02/24 07:23:11;;;;;;;29.35;13.40;;;;;;;-144.65;100.00;64500.88;5070817;28;20130;-73
2022/02/24 07:25:39;;;;;;;25.27;12.98;;;;;;;-144.65;100.00;64500.88;5070699;28;20037;-72
2022/02/24 07:28:07;;;;;;;29.00;13.13;;;;;;;-144.65;100.00;64500.88;5071697;28;20028;-72
2022/02/24 07:30:34;;;;;;;28.23;12.77;;;;;;;-144.65;100.00;64500.88;5070338;28;20431;-72
2022/02/24 07:32:59;;;;;;;23.65;12.88;;;;;;;-144.65;100.00;64500.88;5070376;28;20054;-73
2022/02/24 07:35:25;;;;;;;27.27;12.90;;;;;;;-144.65;100.00;64500.88;5071734;28;20028;-72
2022/02/24 07:37:50;;;;;;;26.33;13.15;;;;;;;-144.65;100.00;64500.88;5071383;28;20024;-73
2022/02/24 07:40:15;;;;;;;30.70;13.80;;;;;;;-144.65;100.00;64500.88;5084495;28;20117;-75
2022/02/24 07:42:42;;;;;;;35.05;13.15;;;;;;;-144.65;100.00;64500.88;5088921;28;20386;-74
2022/02/24 07:45:08;;;;;;;30.08;13.02;;;;;;;-144.65;100.00;64500.88;5090299;28;20039;-75
2022/02/24 07:47:34;;;;;;;24.75;11.77;;;;;;;-144.65;100.00;64500.88;5090352;28;20025;-75
2022/02/24 07:49:59;;;;;;;26.67;12.18;;;;;;;-144.65;100.00;64500.88;5091852;28;20119;-74
2022/02/24 07:52:25;;;;;;;25.38;11.98;;;;;;;-144.65;100.00;64500.88;5090474;28;20081;-74
2022/02/24 07:54:51;;;;;;;22.08;12.05;;;;;;;-144.65;100.00;64500.88;5091811;28;20047;-75
2022/02/24 07:57:16;;;;;;;20.40;10.82;;;;;;;-144.65;100.00;64500.88;5090155;28;20055;-74
2022/02/24 07:59:42;;;;;;;26.67;12.55;;;;;;;-144.65;100.00;64500.88;5091772;28;20081;-74
2022/02/24 08:02:07;;;;;;;22.50;12.23;;;;;;;-144.65;100.00;64500.88;5090839;28;20028;-74
2022/02/24 08:04:33;;;;;;;23.17;11.63;;;;;;;-144.65;100.00;64500.88;5093929;28;20032;-74
2022/02/24 08:06:58;;;;;;;24.67;11.88;;;;;;;-144.65;100.00;64500.88;5095127;28;20028;-75
2022/02/24 08:09:24;;;;;;;30.52;13.75;;;;;;;-144.65;100.00;64500.88;5103143;28;20127;-75
2022/02/24 08:14:38;;;;;;;28.67;13.25;;;;;;;-144.65;100.00;64500.88;5091809;28;20116;-75
2022/02/24 08:17:05;;;;;;;33.88;14.02;;;;;;;-144.65;100.00;64500.88;5084497;28;20043;-75
2022/02/24 08:19:30;;;;;;;36.90;15.65;;;;;;;-144.65;100.00;64500.88;5090572;28;20027;-74
2022/02/24 08:21:56;;;;;;;28.33;13.50;;;;;;;-144.65;100.00;64500.88;5090655;28;20028;-75
2022/02/24 08:24:21;;;;;;;27.90;13.38;;;;;;;-144.65;100.00;64500.88;5088646;28;20024;-74
2022/02/24 08:26:47;;;;;;;22.23;12.65;;;;;;;-144.65;100.00;64500.88;5089596;28;20579;-74
2022/02/24 08:29:12;;;;;;;23.30;12.85;;;;;;;-144.65;100.00;64500.88;5088795;28;20119;-74
2022/02/24 08:31:38;;;;;;;25.23;13.90;;;;;;;-144.65;100.00;64500.88;5090074;28;20020;-74
2022/02/24 08:34:03;;;;;;;24.90;14.35;;;;;;;-144.65;100.00;64500.88;5090011;28;20036;-76
2022/02/24 08:36:30;;;;;;;26.95;12.93;;;;;;;-144.65;100.00;64500.88;5089860;28;20030;-74
2022/02/24 08:38:56;;;;;;;21.15;12.18;;;;;;;-144.65;100.00;64500.88;5087277;28;20464;-74
2022/02/24 08:41:21;;;;;;;24.15;13.18;;;;;;;-144.65;100.00;64500.88;5089302;28;20028;-74
2022/02/24 08:43:46;;;;;;;22.00;12.45;;;;;;;-144.65;100.00;64500.88;5085711;28;20040;-74
2022/02/24 08:46:12;;;;;;;21.67;12.98;;;;;;;-144.65;100.00;64500.88;5082136;28;20027;-75
2022/02/24 08:48:37;;;;;;;20.55;11.60;;;;;;;-144.65;100.00;64500.88;5081933;28;20885;-74
2022/02/24 08:51:02;;;;;;;23.85;11.65;;;;;;;-144.65;100.00;64500.88;5077260;28;20123;-75
2022/02/24 08:53:28;;;;;;;22.77;12.00;;;;;;;-144.65;100.00;64500.88;5083328;28;20457;-75
2022/02/24 08:55:56;;;;;;;28.13;12.27;;;;;;;-144.65;100.00;64500.88;5084640;28;20483;-74
2022/02/24 08:58:21;;;;;;;20.52;11.80;;;;;;;-144.65;100.00;64500.88;5090178;28;20070;-75
2022/02/24 09:00:47;;;;;;;17.50;11.57;;;;;;;-144.65;100.00;64500.88;5089216;28;20048;-74
2022/02/24 09:03:16;;;;;;;25.25;11.85;;;;;;;-144.65;100.00;64500.88;5089700;28;20020;-75
2022/02/24 09:05:44;;;;;;;19.35;10.93;;;;;;;-144.65;100.00;64500.88;5089511;28;20073;-74
2022/02/24 09:08:09;;;;;;;21.33;11.02;;;;;;;-144.65;100.00;64500.88;5089335;28;20040;-74
2022/02/24 09:10:35;;;;;;;21.88;10.27;;;;;;;-144.65;100.00;64500.88;5078618;28;20036;-74
2022/02/24 09:13:01;;;;;;;18.23;10.15;;;;;;;-144.65;100.00;64500.88;5075098;28;20028;-75
2022/02/24 09:15:27;;;;;;;19.00;11.13;;;;;;;-144.65;100.00;64500.88;5090723;28;20027;-74
2022/02/24 09:17:53;;;;;;;21.35;10.90;;;;;;;-144.65;100.00;64500.88;5091338;28;20066;-74
2022/02/24 09:20:18;;;;;;;19.52;10.73;;;;;;;-144.65;100.00;64500.88;5090179;28;20450;-74
2022/02/24 09:22:44;;;;;;;20.60;10.88;;;;;;;-144.65;100.00;64500.88;5090916;28;20032;-75
2022/02/24 09:25:09;;;;;;;18.70;10.35;;;;;;;-144.65;100.00;64500.88;5090909;28;20035;-74
2022/02/24 09:27:36;;;;;;;19.65;10.38;;;;;;;-144.65;100.00;64500.88;5090838;28;20107;-74
2022/02/24 09:30:03;;;;;;;17.73;11.27;;;;;;;-144.65;100.00;64500.88;5090598;28;20027;-74
2022/02/24 09:32:29;;;;;;;21.48;11.05;;;;;;;-144.65;100.00;64500.88;5089194;28;20056;-74
2022/02/24 09:34:54;;;;;;;21.38;10.63;;;;;;;-144.65;100.00;64500.88;5090798;28;20062;-74
2022/02/24 09:37:20;;;;;;;21.88;10.75;;;;;;;-144.65;100.00;64500.88;5089379;28;20032;-74
2022/02/24 09:39:45;;;;;;;19.05;10.27;;;;;;;-144.65;100.00;64500.88;5093182;28;20036;-73
2022/02/24 09:42:13;;;;;;;23.33;10.35;;;;;;;-144.65;100.00;64500.88;5094618;28;20028;-74
2022/02/24 09:44:38;;;;;;;20.50;10.70;;;;;;;-144.65;100.00;64500.88;5094577;28;20129;-74
2022/02/24 09:47:05;;;;;;;19.05;10.40;;;;;;;-144.65;100.00;64500.88;5094702;28;20465;-74
2022/02/24 09:49:34;;;;;;;19.25;10.80;;;;;;;-144.65;100.00;64500.88;5094653;28;20032;-74
2022/02/24 09:52:00;;;;;;;19.45;10.63;;;;;;;-144.65;100.00;64500.88;5097227;28;20049;-73
2022/02/24 09:54:26;;;;;;;16.77;10.60;;;;;;;-144.65;100.00;64500.88;5096717;28;20053;-73
2022/02/24 09:56:53;;;;;;;20.70;11.45;;;;;;;-144.65;100.00;64500.88;5095430;28;20024;-76
2022/02/24 09:59:18;;;;;;;21.38;11.27;;;;;;;-144.65;100.00;64500.88;5095180;28;20044;-75
2022/02/24 10:01:45;;;;;;;19.85;10.38;;;;;;;-144.65;100.00;64500.88;5094511;28;20028;-74
2022/02/24 10:04:11;;;;;;;15.70;9.48;;;;;;;-144.65;100.00;64500.88;5093711;28;20024;-75
2022/02/24 10:06:40;;;;;;;17.77;9.88;;;;;;;-144.65;100.00;64500.88;5094777;28;20046;-75
2022/02/24 10:09:07;;;;;;;13.80;9.65;;;;;;;-144.65;100.00;64500.88;5094227;28;20040;-75
2022/02/24 10:11:34;;;;;;;20.17;8.93;;;;;;;-144.65;100.00;64500.88;5103004;28;20054;-74
2022/02/24 10:14:20;;;;;;;16.02;9.57;;;;;;;-144.65;100.00;64500.88;5106491;28;20016;-77
2022/02/24 10:16:53;;;;;;;16.80;9.75;;;;;;;-144.65;100.00;64500.88;5106261;28;20105;-75
2022/02/24 10:19:29;;;;;;;15.43;9.02;;;;;;;-144.65;100.00;64500.88;5100138;28;20119;-75
2022/02/24 10:22:30;;;;;;;17.27;10.02;;;;;;;-144.65;100.00;64500.88;5112005;28;20092;-75
2022/02/24 10:25:01;;;;;;;17.13;9.88;;;;;;;-144.65;100.00;64500.88;5092851;28;20047;-75
2022/02/24 10:27:35;;;;;;;14.13;9.38;;;;;;;-144.65;100.00;64500.88;5092393;28;20031;-73
2022/02/24 10:30:16;;;;;;;17.70;9.27;;;;;;;-144.65;100.00;64500.88;5093782;28;20032;-75
2022/02/24 10:32:41;;;;;;;16.85;9.18;;;;;;;-144.65;100.00;64500.88;5093913;28;20088;-75
2022/02/24 10:35:26;;;;;;;16.13;9.20;;;;;;;-144.65;100.00;64500.88;5093560;28;20024;-74
2022/02/24 10:38:03;;;;;;;18.77;9.63;;;;;;;-144.65;100.00;64500.88;5093615;28;20154;-74
2022/02/24 10:40:40;;;;;;;19.45;9.63;;;;;;;-144.65;100.00;64500.88;5080754;28;20032;-74
2022/02/24 10:43:23;;;;;;;17.77;10.15;;;;;;;-144.65;100.00;64500.88;5073308;28;20028;-74
2022/02/24 10:46:02;;;;;;;17.27;10.20;;;;;;;-144.65;100.00;64500.88;5073320;28;20039;-75
2022/02/24 10:48:29;;;;;;;18.63;10.35;;;;;;;-144.65;100.00;64500.88;5075256;28;20056;-75
2022/02/24 10:51:01;;;;;;;21.70;10.02;;;;;;;-144.65;100.00;64500.88;5073438;28;20401;-75
2022/02/24 10:53:32;;;;;;;21.75;9.25;;;;;;;-144.65;100.00;64500.88;5073911;28;20025;-75